sensor_id;sensor_type;location;lat;lon;timestamp;temperature;humidity
3478;DHT22;37937;61.490;23.506;2022-12-05T00:03:46;-3.50;99.90
3478;DHT22;37937;61.490;23.506;2022-12-05T00:06:23;-3.60;99.90
3478;DHT22;37937;61.490;23.506;2022-12-05T00:08:50;-3.50;99.90
3478;DHT22;37937;61.490;23.506;2022-12-05T00:11:17;-3.60;99.90
3478;DHT22;37937;61.490;23.506;2022-12-05T00:13:45;-3.60;99.90
3478;DHT22;37937;61.490;23.506;2022-12-05T00:16:14;-3.60;99.90
3478;DHT22;37937;61.490;23.506;2022-12-05T00:18:39;-3.60;99.90
3478;DHT22;37937;61.490;23.506;2022-12-05T00:21:06;-3.60;99.90
3478;DHT22;37937;61.490;23.506;2022-12-05T00:23:32;-3.60;99.90
3478;DHT22;37937;61.490;23.506;2022-12-05T00:26:03;-3.60;99.90
3478;DHT22;37937;61.490;23.506;2022-12-05T00:28:33;-3.60;99.90
3478;DHT22;37937;61.490;23.506;2022-12-05T00:31:02;-3.50;99.90
3478;DHT22;37937;61.490;23.506;2022-12-05T00:33:28;-3.50;99.90
3478;DHT22;37937;61.490;23.506;2022-12-05T00:35:55;-3.40;99.90
3478;DHT22;37937;61.490;23.506;2022-12-05T00:38:25;-3.40;99.90
3478;DHT22;37937;61.490;23.506;2022-12-05T00:40:51;-3.40;99.90
3478;DHT22;37937;61.490;23.506;2022-12-05T00:43:16;-3.40;99.90
3478;DHT22;37937;61.490;23.506;2022-12-05T00:45:42;-3.30;99.90
3478;DHT22;37937;61.490;23.506;2022-12-05T00:48:08;-3.30;99.90
3478;DHT22;37937;61.490;23.506;2022-12-05T00:50:34;-3.30;99.90
3478;DHT22;37937;61.490;23.506;2022-12-05T00:52:59;-3.30;99.90
3478;DHT22;37937;61.490;23.506;2022-12-05T00:55:25;-3.30;99.90
3478;DHT22;37937;61.490;23.506;2022-12-05T00:57:51;-3.30;99.90
3478;DHT22;37937;61.490;23.506;2022-12-05T01:00:16;-3.40;99.90
3478;DHT22;37937;61.490;23.506;2022-12-05T01:02:42;-3.40;99.90
3478;DHT22;37937;61.490;23.506;2022-12-05T01:05:08;-3.40;99.90
3478;DHT22;37937;61.490;23.506;2022-12-05T01:07:34;-3.50;99.90
3478;DHT22;37937;61.490;23.506;2022-12-05T01:10:00;-3.50;99.90
3478;DHT22;37937;61.490;23.506;2022-12-05T01:12:25;-3.50;99.90
3478;DHT22;37937;61.490;23.506;2022-12-05T01:14:54;-3.50;99.90
3478;DHT22;37937;61.490;23.506;2022-12-05T01:17:21;-3.50;99.90
3478;DHT22;37937;61.490;23.506;2022-12-05T01:19:46;-3.50;99.90
3478;DHT22;37937;61.490;23.506;2022-12-05T01:22:12;-3.40;99.90
3478;DHT22;37937;61.490;23.506;2022-12-05T01:24:39;-3.40;99.90
3478;DHT22;37937;61.490;23.506;2022-12-05T01:27:04;-3.40;99.90
3478;DHT22;37937;61.490;23.506;2022-12-05T01:29:30;-3.40;99.90
3478;DHT22;37937;61.490;23.506;2022-12-05T01:31:56;-3.40;99.90
3478;DHT22;37937;61.490;23.506;2022-12-05T01:34:22;-3.30;99.90
3478;DHT22;37937;61.490;23.506;2022-12-05T01:36:48;-3.30;99.90
3478;DHT22;37937;61.490;23.506;2022-12-05T01:39:13;-3.30;99.90
3478;DHT22;37937;61.490;23.506;2022-12-05T01:41:41;-3.40;99.90
3478;DHT22;37937;61.490;23.506;2022-12-05T01:46:37;-3.40;99.90
3478;DHT22;37937;61.490;23.506;2022-12-05T01:51:32;-3.30;99.90
3478;DHT22;37937;61.490;23.506;2022-12-05T01:53:58;-3.30;99.90
3478;DHT22;37937;61.490;23.506;2022-12-05T01:56:24;-3.30;99.90
3478;DHT22;37937;61.490;23.506;2022-12-05T01:58:51;-3.40;99.90
3478;DHT22;37937;61.490;23.506;2022-12-05T02:01:18;-3.40;99.90
3478;DHT22;37937;61.490;23.506;2022-12-05T02:03:45;-3.40;99.90
3478;DHT22;37937;61.490;23.506;2022-12-05T02:06:13;-3.40;99.90
3478;DHT22;37937;61.490;23.506;2022-12-05T02:08:39;-3.40;99.90
3478;DHT22;37937;61.490;23.506;2022-12-05T02:11:05;-3.40;99.90
3478;DHT22;37937;61.490;23.506;2022-12-05T02:14:19;-3.50;99.90
3478;DHT22;37937;61.490;23.506;2022-12-05T02:18:55;-3.50;99.90
3478;DHT22;37937;61.490;23.506;2022-12-05T02:23:59;-3.50;99.90
3478;DHT22;37937;61.490;23.506;2022-12-05T02:32:03;-3.60;99.90
3478;DHT22;37937;61.490;23.506;2022-12-05T02:36:58;-3.50;99.90
3478;DHT22;37937;61.490;23.506;2022-12-05T02:39:45;-3.50;99.90
3478;DHT22;37937;61.490;23.506;2022-12-05T02:45:02;-3.40;99.90
3478;DHT22;37937;61.490;23.506;2022-12-05T02:47:32;-3.40;99.90
3478;DHT22;37937;61.490;23.506;2022-12-05T02:50:00;-3.40;99.90
3478;DHT22;37937;61.490;23.506;2022-12-05T02:52:26;-3.40;99.90
3478;DHT22;37937;61.490;23.506;2022-12-05T02:54:55;-3.40;99.90
3478;DHT22;37937;61.490;23.506;2022-12-05T02:57:21;-3.30;99.90
3478;DHT22;37937;61.490;23.506;2022-12-05T02:59:50;-3.30;99.90
3478;DHT22;37937;61.490;23.506;2022-12-05T03:02:51;-3.40;99.90
3478;DHT22;37937;61.490;23.506;2022-12-05T03:05:18;-3.40;99.90
3478;DHT22;37937;61.490;23.506;2022-12-05T03:07:47;-3.40;99.90
3478;DHT22;37937;61.490;23.506;2022-12-05T03:10:17;-3.40;99.90
3478;DHT22;37937;61.490;23.506;2022-12-05T03:12:47;-3.50;99.90
3478;DHT22;37937;61.490;23.506;2022-12-05T03:15:23;-3.40;99.90
3478;DHT22;37937;61.490;23.506;2022-12-05T03:18:02;-3.40;99.90
3478;DHT22;37937;61.490;23.506;2022-12-05T03:20:32;-3.40;99.90
3478;DHT22;37937;61.490;23.506;2022-12-05T03:23:05;-3.40;99.90
3478;DHT22;37937;61.490;23.506;2022-12-05T03:25:42;-3.40;99.90
3478;DHT22;37937;61.490;23.506;2022-12-05T03:28:18;-3.50;99.90
3478;DHT22;37937;61.490;23.506;2022-12-05T03:31:07;-3.50;99.90
3478;DHT22;37937;61.490;23.506;2022-12-05T03:33:34;-3.50;99.90
3478;DHT22;37937;61.490;23.506;2022-12-05T03:36:13;-3.40;99.90
3478;DHT22;37937;61.490;23.506;2022-12-05T03:41:08;-3.40;99.90
3478;DHT22;37937;61.490;23.506;2022-12-05T03:43:45;-3.40;99.90
3478;DHT22;37937;61.490;23.506;2022-12-05T03:46:33;-3.40;99.90
3478;DHT22;37937;61.490;23.506;2022-12-05T03:54:54;-3.40;99.90
3478;DHT22;37937;61.490;23.506;2022-12-05T03:57:21;-3.40;99.90
3478;DHT22;37937;61.490;23.506;2022-12-05T03:59:59;-3.40;99.90
3478;DHT22;37937;61.490;23.506;2022-12-05T04:02:31;-3.40;99.90
3478;DHT22;37937;61.490;23.506;2022-12-05T04:05:03;-3.40;99.90
3478;DHT22;37937;61.490;23.506;2022-12-05T04:07:31;-3.30;99.90
3478;DHT22;37937;61.490;23.506;2022-12-05T04:09:59;-3.40;99.90
3478;DHT22;37937;61.490;23.506;2022-12-05T04:12:26;-3.40;99.90
3478;DHT22;37937;61.490;23.506;2022-12-05T04:14:55;-3.40;99.90
3478;DHT22;37937;61.490;23.506;2022-12-05T04:17:34;-3.40;99.90
3478;DHT22;37937;61.490;23.506;2022-12-05T04:20:17;-3.40;99.90
3478;DHT22;37937;61.490;23.506;2022-12-05T04:23:03;-3.60;99.90
3478;DHT22;37937;61.490;23.506;2022-12-05T04:25:32;-3.70;99.90
3478;DHT22;37937;61.490;23.506;2022-12-05T04:30:37;-3.70;99.90
3478;DHT22;37937;61.490;23.506;2022-12-05T04:33:05;-3.60;99.90
3478;DHT22;37937;61.490;23.506;2022-12-05T04:35:36;-3.60;99.90
3478;DHT22;37937;61.490;23.506;2022-12-05T04:38:12;-3.50;99.90
3478;DHT22;37937;61.490;23.506;2022-12-05T04:40:43;-3.60;99.90
3478;DHT22;37937;61.490;23.506;2022-12-05T04:43:13;-3.60;99.90
3478;DHT22;37937;61.490;23.506;2022-12-05T04:45:41;-3.60;99.90
3478;DHT22;37937;61.490;23.506;2022-12-05T04:48:12;-3.60;99.90
3478;DHT22;37937;61.490;23.506;2022-12-05T04:50:39;-3.70;99.90
3478;DHT22;37937;61.490;23.506;2022-12-05T04:53:06;-3.70;99.90
3478;DHT22;37937;61.490;23.506;2022-12-05T04:55:33;-3.70;99.90
3478;DHT22;37937;61.490;23.506;2022-12-05T05:00:33;-3.70;99.90
3478;DHT22;37937;61.490;23.506;2022-12-05T05:03:03;-3.70;99.90
3478;DHT22;37937;61.490;23.506;2022-12-05T05:05:30;-3.70;99.90
3478;DHT22;37937;61.490;23.506;2022-12-05T05:07:57;-3.70;99.90
3478;DHT22;37937;61.490;23.506;2022-12-05T05:10:29;-3.70;99.90
3478;DHT22;37937;61.490;23.506;2022-12-05T05:12:56;-3.70;99.90
3478;DHT22;37937;61.490;23.506;2022-12-05T05:15:22;-3.70;99.90
3478;DHT22;37937;61.490;23.506;2022-12-05T05:17:48;-3.70;99.90
3478;DHT22;37937;61.490;23.506;2022-12-05T05:20:14;-3.70;99.90
3478;DHT22;37937;61.490;23.506;2022-12-05T05:22:50;-3.70;99.90
3478;DHT22;37937;61.490;23.506;2022-12-05T05:25:16;-3.80;99.90
3478;DHT22;37937;61.490;23.506;2022-12-05T05:27:42;-3.90;99.90
3478;DHT22;37937;61.490;23.506;2022-12-05T05:30:10;-3.90;99.90
3478;DHT22;37937;61.490;23.506;2022-12-05T05:32:36;-3.90;99.90
3478;DHT22;37937;61.490;23.506;2022-12-05T05:35:02;-3.90;99.90
3478;DHT22;37937;61.490;23.506;2022-12-05T05:37:28;-3.90;99.90
3478;DHT22;37937;61.490;23.506;2022-12-05T05:39:53;-4.00;99.90
3478;DHT22;37937;61.490;23.506;2022-12-05T05:42:19;-3.90;99.90
3478;DHT22;37937;61.490;23.506;2022-12-05T05:44:45;-4.00;99.90
3478;DHT22;37937;61.490;23.506;2022-12-05T05:47:10;-4.00;99.90
3478;DHT22;37937;61.490;23.506;2022-12-05T05:49:36;-4.00;99.90
3478;DHT22;37937;61.490;23.506;2022-12-05T05:52:02;-4.10;99.90
3478;DHT22;37937;61.490;23.506;2022-12-05T05:54:28;-4.10;99.90
3478;DHT22;37937;61.490;23.506;2022-12-05T05:56:54;-4.10;99.90
3478;DHT22;37937;61.490;23.506;2022-12-05T05:59:19;-4.00;99.90
3478;DHT22;37937;61.490;23.506;2022-12-05T06:01:45;-4.00;99.90
3478;DHT22;37937;61.490;23.506;2022-12-05T06:04:11;-4.00;99.90
3478;DHT22;37937;61.490;23.506;2022-12-05T06:06:37;-4.10;99.90
3478;DHT22;37937;61.490;23.506;2022-12-05T06:09:05;-4.10;99.90
3478;DHT22;37937;61.490;23.506;2022-12-05T06:11:31;-4.00;99.90
3478;DHT22;37937;61.490;23.506;2022-12-05T06:13:57;-4.00;99.90
3478;DHT22;37937;61.490;23.506;2022-12-05T06:16:25;-4.00;99.90
3478;DHT22;37937;61.490;23.506;2022-12-05T06:18:51;-4.00;99.90
3478;DHT22;37937;61.490;23.506;2022-12-05T06:21:17;-4.10;99.90
3478;DHT22;37937;61.490;23.506;2022-12-05T06:23:43;-4.00;99.90
3478;DHT22;37937;61.490;23.506;2022-12-05T06:26:13;-4.10;99.90
3478;DHT22;37937;61.490;23.506;2022-12-05T06:28:39;-4.10;99.90
3478;DHT22;37937;61.490;23.506;2022-12-05T06:31:16;-4.10;99.90
3478;DHT22;37937;61.490;23.506;2022-12-05T06:33:42;-4.20;99.90
3478;DHT22;37937;61.490;23.506;2022-12-05T06:36:09;-4.30;99.90
3478;DHT22;37937;61.490;23.506;2022-12-05T06:38:35;-4.30;99.90
3478;DHT22;37937;61.490;23.506;2022-12-05T06:41:03;-4.30;99.90
3478;DHT22;37937;61.490;23.506;2022-12-05T06:43:29;-4.30;99.90
3478;DHT22;37937;61.490;23.506;2022-12-05T06:45:54;-4.30;99.90
3478;DHT22;37937;61.490;23.506;2022-12-05T06:48:21;-4.40;99.90
3478;DHT22;37937;61.490;23.506;2022-12-05T06:50:51;-4.40;99.90
3478;DHT22;37937;61.490;23.506;2022-12-05T06:53:17;-4.50;99.90
3478;DHT22;37937;61.490;23.506;2022-12-05T06:55:43;-4.50;99.90
3478;DHT22;37937;61.490;23.506;2022-12-05T06:58:09;-4.50;99.90
3478;DHT22;37937;61.490;23.506;2022-12-05T07:00:35;-4.50;99.90
3478;DHT22;37937;61.490;23.506;2022-12-05T07:03:19;-4.50;99.90
3478;DHT22;37937;61.490;23.506;2022-12-05T07:05:44;-4.60;99.90
3478;DHT22;37937;61.490;23.506;2022-12-05T07:08:10;-4.60;99.90
3478;DHT22;37937;61.490;23.506;2022-12-05T07:10:36;-4.60;99.90
3478;DHT22;37937;61.490;23.506;2022-12-05T07:13:02;-4.60;99.90
3478;DHT22;37937;61.490;23.506;2022-12-05T07:15:28;-4.60;99.90
3478;DHT22;37937;61.490;23.506;2022-12-05T07:17:54;-4.60;99.90
3478;DHT22;37937;61.490;23.506;2022-12-05T07:20:19;-4.60;99.90
3478;DHT22;37937;61.490;23.506;2022-12-05T07:22:45;-4.60;99.90
3478;DHT22;37937;61.490;23.506;2022-12-05T07:25:13;-4.60;99.90
3478;DHT22;37937;61.490;23.506;2022-12-05T07:27:41;-4.60;99.90
3478;DHT22;37937;61.490;23.506;2022-12-05T07:30:07;-4.60;99.90
3478;DHT22;37937;61.490;23.506;2022-12-05T07:32:33;-4.60;99.90
3478;DHT22;37937;61.490;23.506;2022-12-05T07:34:58;-4.60;99.90
3478;DHT22;37937;61.490;23.506;2022-12-05T07:37:24;-4.60;99.90
3478;DHT22;37937;61.490;23.506;2022-12-05T07:39:51;-4.60;99.90
3478;DHT22;37937;61.490;23.506;2022-12-05T07:42:17;-4.60;99.90
3478;DHT22;37937;61.490;23.506;2022-12-05T07:44:42;-4.60;99.90
3478;DHT22;37937;61.490;23.506;2022-12-05T07:47:08;-4.70;99.90
3478;DHT22;37937;61.490;23.506;2022-12-05T07:49:34;-4.70;99.90
3478;DHT22;37937;61.490;23.506;2022-12-05T07:51:59;-4.70;99.90
3478;DHT22;37937;61.490;23.506;2022-12-05T07:54:25;-4.70;99.90
3478;DHT22;37937;61.490;23.506;2022-12-05T07:56:51;-4.70;99.90
3478;DHT22;37937;61.490;23.506;2022-12-05T07:59:17;-4.70;99.90
3478;DHT22;37937;61.490;23.506;2022-12-05T08:01:42;-4.90;99.90
3478;DHT22;37937;61.490;23.506;2022-12-05T08:04:08;-4.80;99.90
3478;DHT22;37937;61.490;23.506;2022-12-05T08:06:34;-4.80;99.90
3478;DHT22;37937;61.490;23.506;2022-12-05T08:09:00;-4.80;99.90
3478;DHT22;37937;61.490;23.506;2022-12-05T08:11:30;-4.80;99.90
3478;DHT22;37937;61.490;23.506;2022-12-05T08:13:57;-4.80;99.90
3478;DHT22;37937;61.490;23.506;2022-12-05T08:16:23;-4.80;99.90
3478;DHT22;37937;61.490;23.506;2022-12-05T08:18:53;-4.80;99.90
3478;DHT22;37937;61.490;23.506;2022-12-05T08:21:19;-4.70;99.90
3478;DHT22;37937;61.490;23.506;2022-12-05T08:23:45;-4.70;99.90
3478;DHT22;37937;61.490;23.506;2022-12-05T08:26:18;-4.70;99.90
3478;DHT22;37937;61.490;23.506;2022-12-05T08:29:01;-4.60;99.90
3478;DHT22;37937;61.490;23.506;2022-12-05T08:31:28;-4.70;99.90
3478;DHT22;37937;61.490;23.506;2022-12-05T08:33:58;-4.60;99.90
3478;DHT22;37937;61.490;23.506;2022-12-05T08:36:24;-4.60;99.90
3478;DHT22;37937;61.490;23.506;2022-12-05T08:38:54;-4.70;99.90
3478;DHT22;37937;61.490;23.506;2022-12-05T08:41:19;-4.90;99.90
3478;DHT22;37937;61.490;23.506;2022-12-05T08:43:45;-5.00;99.90
3478;DHT22;37937;61.490;23.506;2022-12-05T08:46:11;-5.10;99.90
3478;DHT22;37937;61.490;23.506;2022-12-05T08:48:37;-5.10;99.90
3478;DHT22;37937;61.490;23.506;2022-12-05T08:51:09;-5.10;99.90
3478;DHT22;37937;61.490;23.506;2022-12-05T08:53:36;-5.10;99.90
3478;DHT22;37937;61.490;23.506;2022-12-05T08:56:02;-5.10;99.90
3478;DHT22;37937;61.490;23.506;2022-12-05T08:58:28;-5.10;99.90
3478;DHT22;37937;61.490;23.506;2022-12-05T09:01:01;-5.10;99.90
3478;DHT22;37937;61.490;23.506;2022-12-05T09:03:27;-5.10;99.90
3478;DHT22;37937;61.490;23.506;2022-12-05T09:05:52;-5.20;99.90
3478;DHT22;37937;61.490;23.506;2022-12-05T09:08:18;-5.20;99.90
3478;DHT22;37937;61.490;23.506;2022-12-05T09:10:44;-5.20;99.90
3478;DHT22;37937;61.490;23.506;2022-12-05T09:13:09;-5.20;99.90
3478;DHT22;37937;61.490;23.506;2022-12-05T09:15:37;-5.20;99.90
3478;DHT22;37937;61.490;23.506;2022-12-05T09:18:02;-5.20;99.90
3478;DHT22;37937;61.490;23.506;2022-12-05T09:20:28;-5.20;99.90
3478;DHT22;37937;61.490;23.506;2022-12-05T09:22:54;-5.30;99.90
3478;DHT22;37937;61.490;23.506;2022-12-05T09:25:19;-5.30;99.90
3478;DHT22;37937;61.490;23.506;2022-12-05T09:27:46;-5.20;99.90
3478;DHT22;37937;61.490;23.506;2022-12-05T09:30:12;-5.30;99.90
3478;DHT22;37937;61.490;23.506;2022-12-05T09:32:38;-5.20;99.90
3478;DHT22;37937;61.490;23.506;2022-12-05T09:35:04;-5.10;99.90
3478;DHT22;37937;61.490;23.506;2022-12-05T09:37:29;-5.10;99.90
3478;DHT22;37937;61.490;23.506;2022-12-05T09:39:55;-5.20;99.90
3478;DHT22;37937;61.490;23.506;2022-12-05T09:42:56;-5.20;99.90
3478;DHT22;37937;61.490;23.506;2022-12-05T09:45:14;-5.20;99.90
3478;DHT22;37937;61.490;23.506;2022-12-05T09:50:21;-5.20;99.90
3478;DHT22;37937;61.490;23.506;2022-12-05T09:55:15;-5.20;99.90
3478;DHT22;37937;61.490;23.506;2022-12-05T09:57:43;-5.20;99.90
3478;DHT22;37937;61.490;23.506;2022-12-05T10:00:10;-5.10;99.90
3478;DHT22;37937;61.490;23.506;2022-12-05T10:05:10;-5.20;99.90
3478;DHT22;37937;61.490;23.506;2022-12-05T10:20:30;-5.00;99.90
3478;DHT22;37937;61.490;23.506;2022-12-05T10:22:58;-5.00;99.90
3478;DHT22;37937;61.490;23.506;2022-12-05T10:25:26;-5.00;99.90
3478;DHT22;37937;61.490;23.506;2022-12-05T10:28:00;-5.00;99.90
3478;DHT22;37937;61.490;23.506;2022-12-05T10:30:29;-4.90;99.90
3478;DHT22;37937;61.490;23.506;2022-12-05T10:32:58;-4.90;99.90
3478;DHT22;37937;61.490;23.506;2022-12-05T10:35:26;-4.90;99.90
3478;DHT22;37937;61.490;23.506;2022-12-05T10:37:54;-5.00;99.90
3478;DHT22;37937;61.490;23.506;2022-12-05T10:40:21;-5.00;99.90
3478;DHT22;37937;61.490;23.506;2022-12-05T10:42:47;-5.00;99.90
3478;DHT22;37937;61.490;23.506;2022-12-05T10:45:20;-5.10;99.90
3478;DHT22;37937;61.490;23.506;2022-12-05T10:47:46;-5.10;99.90
3478;DHT22;37937;61.490;23.506;2022-12-05T10:50:35;-5.00;99.90
3478;DHT22;37937;61.490;23.506;2022-12-05T10:52:59;-5.00;99.90
3478;DHT22;37937;61.490;23.506;2022-12-05T10:55:28;-5.00;99.90
3478;DHT22;37937;61.490;23.506;2022-12-05T10:58:08;-5.10;99.90
3478;DHT22;37937;61.490;23.506;2022-12-05T11:00:34;-5.10;99.90
3478;DHT22;37937;61.490;23.506;2022-12-05T11:03:02;-5.00;99.90
3478;DHT22;37937;61.490;23.506;2022-12-05T11:05:30;-5.10;99.90
3478;DHT22;37937;61.490;23.506;2022-12-05T11:07:57;-5.10;99.90
3478;DHT22;37937;61.490;23.506;2022-12-05T11:10:31;-5.10;99.90
3478;DHT22;37937;61.490;23.506;2022-12-05T11:12:58;-5.00;99.90
3478;DHT22;37937;61.490;23.506;2022-12-05T11:15:25;-5.10;99.90
3478;DHT22;37937;61.490;23.506;2022-12-05T11:17:53;-5.20;99.90
3478;DHT22;37937;61.490;23.506;2022-12-05T11:22:54;-5.20;99.90
3478;DHT22;37937;61.490;23.506;2022-12-05T11:27:52;-5.20;99.90
3478;DHT22;37937;61.490;23.506;2022-12-05T11:30:19;-5.20;99.90
3478;DHT22;37937;61.490;23.506;2022-12-05T11:32:45;-5.20;99.90
3478;DHT22;37937;61.490;23.506;2022-12-05T11:37:51;-5.20;99.90
3478;DHT22;37937;61.490;23.506;2022-12-05T11:40:22;-5.20;99.90
3478;DHT22;37937;61.490;23.506;2022-12-05T11:49:07;-5.30;99.90
3478;DHT22;37937;61.490;23.506;2022-12-05T11:56:43;-5.40;99.90
3478;DHT22;37937;61.490;23.506;2022-12-05T11:59:45;-5.40;99.90
3478;DHT22;37937;61.490;23.506;2022-12-05T12:10:17;-5.50;99.90
3478;DHT22;37937;61.490;23.506;2022-12-05T12:12:51;-5.50;99.90
3478;DHT22;37937;61.490;23.506;2022-12-05T12:15:29;-5.50;99.90
3478;DHT22;37937;61.490;23.506;2022-12-05T12:20:43;-5.50;99.90
3478;DHT22;37937;61.490;23.506;2022-12-05T12:23:17;-5.50;99.90
3478;DHT22;37937;61.490;23.506;2022-12-05T12:33:45;-5.50;99.90
3478;DHT22;37937;61.490;23.506;2022-12-05T12:36:37;-5.60;99.90
3478;DHT22;37937;61.490;23.506;2022-12-05T12:41:52;-5.50;99.90
3478;DHT22;37937;61.490;23.506;2022-12-05T12:47:00;-5.50;99.90
3478;DHT22;37937;61.490;23.506;2022-12-05T12:52:03;-5.60;99.90
3478;DHT22;37937;61.490;23.506;2022-12-05T12:54:42;-5.60;99.90
3478;DHT22;37937;61.490;23.506;2022-12-05T12:57:18;-5.60;99.90
3478;DHT22;37937;61.490;23.506;2022-12-05T12:59:50;-5.60;99.90
3478;DHT22;37937;61.490;23.506;2022-12-05T13:09:42;-5.60;99.90
3478;DHT22;37937;61.490;23.506;2022-12-05T13:12:15;-5.60;99.90
3478;DHT22;37937;61.490;23.506;2022-12-05T13:14:48;-5.60;99.90
3478;DHT22;37937;61.490;23.506;2022-12-05T13:17:18;-5.60;99.90
3478;DHT22;37937;61.490;23.506;2022-12-05T13:19:51;-5.70;99.90
3478;DHT22;37937;61.490;23.506;2022-12-05T13:22:17;-5.70;99.90
3478;DHT22;37937;61.490;23.506;2022-12-05T13:24:44;-5.80;99.90
3478;DHT22;37937;61.490;23.506;2022-12-05T13:27:16;-5.80;99.90
3478;DHT22;37937;61.490;23.506;2022-12-05T13:29:50;-5.80;99.90
3478;DHT22;37937;61.490;23.506;2022-12-05T13:32:49;-5.80;99.90
3478;DHT22;37937;61.490;23.506;2022-12-05T13:35:53;-5.80;99.90
3478;DHT22;37937;61.490;23.506;2022-12-05T13:38:22;-5.80;99.90
3478;DHT22;37937;61.490;23.506;2022-12-05T13:41:10;-5.90;99.90
3478;DHT22;37937;61.490;23.506;2022-12-05T13:43:54;-6.00;99.90
3478;DHT22;37937;61.490;23.506;2022-12-05T13:46:33;-5.90;99.90
3478;DHT22;37937;61.490;23.506;2022-12-05T13:49:04;-5.90;99.90
3478;DHT22;37937;61.490;23.506;2022-12-05T13:51:34;-5.90;99.90
3478;DHT22;37937;61.490;23.506;2022-12-05T13:56:50;-5.80;99.90
3478;DHT22;37937;61.490;23.506;2022-12-05T14:02:00;-5.90;99.90
3478;DHT22;37937;61.490;23.506;2022-12-05T14:12:56;-6.10;99.90
3478;DHT22;37937;61.490;23.506;2022-12-05T14:18:02;-6.10;99.90
3478;DHT22;37937;61.490;23.506;2022-12-05T14:25:58;-6.00;99.90
3478;DHT22;37937;61.490;23.506;2022-12-05T14:28:47;-6.10;99.90
3478;DHT22;37937;61.490;23.506;2022-12-05T14:34:29;-6.00;99.90
3478;DHT22;37937;61.490;23.506;2022-12-05T14:37:01;-5.90;99.90
3478;DHT22;37937;61.490;23.506;2022-12-05T14:41:55;-5.80;99.90
3478;DHT22;37937;61.490;23.506;2022-12-05T14:44:21;-5.80;99.90
3478;DHT22;37937;61.490;23.506;2022-12-05T14:46:48;-5.80;99.90
3478;DHT22;37937;61.490;23.506;2022-12-05T14:52:09;-5.80;99.90
3478;DHT22;37937;61.490;23.506;2022-12-05T14:54:35;-5.80;99.90
3478;DHT22;37937;61.490;23.506;2022-12-05T14:57:03;-5.90;99.90
3478;DHT22;37937;61.490;23.506;2022-12-05T14:59:36;-5.80;99.90
3478;DHT22;37937;61.490;23.506;2022-12-05T15:02:10;-5.90;99.90
3478;DHT22;37937;61.490;23.506;2022-12-05T15:04:41;-5.80;99.90
3478;DHT22;37937;61.490;23.506;2022-12-05T15:07:08;-5.80;99.90
3478;DHT22;37937;61.490;23.506;2022-12-05T15:12:19;-5.70;99.90
3478;DHT22;37937;61.490;23.506;2022-12-05T15:17:31;-5.70;99.90
3478;DHT22;37937;61.490;23.506;2022-12-05T15:20:07;-5.80;99.90
3478;DHT22;37937;61.490;23.506;2022-12-05T15:22:35;-5.80;99.90
3478;DHT22;37937;61.490;23.506;2022-12-05T15:25:17;-5.80;99.90
3478;DHT22;37937;61.490;23.506;2022-12-05T15:27:55;-5.80;99.90
3478;DHT22;37937;61.490;23.506;2022-12-05T15:30:21;-5.80;99.90
3478;DHT22;37937;61.490;23.506;2022-12-05T15:32:47;-5.80;99.90
3478;DHT22;37937;61.490;23.506;2022-12-05T15:35:13;-5.80;99.90
3478;DHT22;37937;61.490;23.506;2022-12-05T15:37:45;-5.80;99.90
3478;DHT22;37937;61.490;23.506;2022-12-05T15:40:13;-5.80;99.90
3478;DHT22;37937;61.490;23.506;2022-12-05T15:42:44;-5.80;99.90
3478;DHT22;37937;61.490;23.506;2022-12-05T15:47:39;-5.80;99.90
3478;DHT22;37937;61.490;23.506;2022-12-05T15:50:11;-5.80;99.90
3478;DHT22;37937;61.490;23.506;2022-12-05T15:52:40;-5.80;99.90
3478;DHT22;37937;61.490;23.506;2022-12-05T15:55:09;-5.80;99.90
3478;DHT22;37937;61.490;23.506;2022-12-05T15:57:39;-5.80;99.90
3478;DHT22;37937;61.490;23.506;2022-12-05T16:00:06;-5.80;99.90
3478;DHT22;37937;61.490;23.506;2022-12-05T16:02:43;-5.90;99.90
3478;DHT22;37937;61.490;23.506;2022-12-05T16:05:18;-6.00;99.90
3478;DHT22;37937;61.490;23.506;2022-12-05T16:07:44;-6.00;99.90
3478;DHT22;37937;61.490;23.506;2022-12-05T16:10:11;-6.00;99.90
3478;DHT22;37937;61.490;23.506;2022-12-05T16:12:38;-6.10;99.90
3478;DHT22;37937;61.490;23.506;2022-12-05T16:15:08;-6.00;99.90
3478;DHT22;37937;61.490;23.506;2022-12-05T16:17:37;-6.10;99.90
3478;DHT22;37937;61.490;23.506;2022-12-05T16:20:15;-6.10;99.90
3478;DHT22;37937;61.490;23.506;2022-12-05T16:22:48;-6.10;99.90
3478;DHT22;37937;61.490;23.506;2022-12-05T16:25:20;-6.20;99.90
3478;DHT22;37937;61.490;23.506;2022-12-05T16:27:59;-6.30;99.90
3478;DHT22;37937;61.490;23.506;2022-12-05T16:30:26;-6.20;99.90
3478;DHT22;37937;61.490;23.506;2022-12-05T16:32:59;-6.20;99.90
3478;DHT22;37937;61.490;23.506;2022-12-05T16:35:35;-6.20;99.90
3478;DHT22;37937;61.490;23.506;2022-12-05T16:38:06;-6.20;99.90
3478;DHT22;37937;61.490;23.506;2022-12-05T16:40:34;-6.20;99.90
3478;DHT22;37937;61.490;23.506;2022-12-05T16:43:03;-6.30;99.90
3478;DHT22;37937;61.490;23.506;2022-12-05T16:45:42;-6.30;99.90
3478;DHT22;37937;61.490;23.506;2022-12-05T16:51:38;-6.30;99.90
3478;DHT22;37937;61.490;23.506;2022-12-05T16:53:39;-6.30;99.90
3478;DHT22;37937;61.490;23.506;2022-12-05T16:56:06;-6.20;99.90
3478;DHT22;37937;61.490;23.506;2022-12-05T16:58:33;-6.20;99.90
3478;DHT22;37937;61.490;23.506;2022-12-05T17:01:00;-6.20;99.90
3478;DHT22;37937;61.490;23.506;2022-12-05T17:03:26;-6.20;99.90
3478;DHT22;37937;61.490;23.506;2022-12-05T17:05:53;-6.20;99.90
3478;DHT22;37937;61.490;23.506;2022-12-05T17:08:19;-6.10;99.90
3478;DHT22;37937;61.490;23.506;2022-12-05T17:10:44;-6.20;99.90
3478;DHT22;37937;61.490;23.506;2022-12-05T17:13:12;-6.20;99.90
3478;DHT22;37937;61.490;23.506;2022-12-05T17:15:38;-6.10;99.90
3478;DHT22;37937;61.490;23.506;2022-12-05T17:18:15;-6.10;99.90
3478;DHT22;37937;61.490;23.506;2022-12-05T17:20:41;-6.00;99.90
3478;DHT22;37937;61.490;23.506;2022-12-05T17:23:11;-5.90;99.90
3478;DHT22;37937;61.490;23.506;2022-12-05T17:25:37;-5.90;99.90
3478;DHT22;37937;61.490;23.506;2022-12-05T17:28:04;-5.90;99.90
3478;DHT22;37937;61.490;23.506;2022-12-05T17:30:29;-5.90;99.90
3478;DHT22;37937;61.490;23.506;2022-12-05T17:32:55;-5.90;99.90
3478;DHT22;37937;61.490;23.506;2022-12-05T17:35:21;-5.80;99.90
3478;DHT22;37937;61.490;23.506;2022-12-05T17:37:47;-5.80;99.90
3478;DHT22;37937;61.490;23.506;2022-12-05T17:40:13;-5.80;99.90
3478;DHT22;37937;61.490;23.506;2022-12-05T17:42:39;-5.70;99.90
3478;DHT22;37937;61.490;23.506;2022-12-05T17:45:05;-5.80;99.90
3478;DHT22;37937;61.490;23.506;2022-12-05T17:47:33;-5.70;99.90
3478;DHT22;37937;61.490;23.506;2022-12-05T17:50:00;-5.70;99.90
3478;DHT22;37937;61.490;23.506;2022-12-05T17:52:26;-5.70;99.90
3478;DHT22;37937;61.490;23.506;2022-12-05T17:54:52;-5.70;99.90
3478;DHT22;37937;61.490;23.506;2022-12-05T17:57:18;-5.70;99.90
3478;DHT22;37937;61.490;23.506;2022-12-05T17:59:43;-5.70;99.90
3478;DHT22;37937;61.490;23.506;2022-12-05T18:02:09;-5.80;99.90
3478;DHT22;37937;61.490;23.506;2022-12-05T18:04:36;-5.80;99.90
3478;DHT22;37937;61.490;23.506;2022-12-05T18:07:02;-5.80;99.90
3478;DHT22;37937;61.490;23.506;2022-12-05T18:09:27;-5.80;99.90
3478;DHT22;37937;61.490;23.506;2022-12-05T18:11:53;-5.80;99.90
3478;DHT22;37937;61.490;23.506;2022-12-05T18:14:21;-5.80;99.90